Time;durP1;ratioP1;P1;durP2;ratioP2;P2;SDS_P1;SDS_P2;PMS_P1;PMS_P2;Temp;Humidity;BMP_temperature;BMP_pressure;BME280_temperature;BME280_humidity;BME280_pressure;Samples;Min_cycle;Max_cycle;Signal;HPM_P1;HPM_P2
2021/04/23 00:01:21;;;;;;;17.10;5.55;;;4.30;99.90;;;;;;5073080;28;20182;-72
2021/04/23 00:03:58;;;;;;;12.10;5.95;;;4.30;99.90;;;;;;5073251;28;20020;-72
2021/04/23 00:06:30;;;;;;;8.65;5.47;;;4.30;99.90;;;;;;5072233;28;20020;-73
2021/04/23 00:09:18;;;;;;;13.20;5.97;;;4.30;99.90;;;;;;5073628;28;20361;-72
2021/04/23 00:11:46;;;;;;;14.00;6.35;;;4.20;99.90;;;;;;5073395;28;20028;-73
2021/04/23 00:14:15;;;;;;;14.07;8.00;;;4.20;99.90;;;;;;5071690;28;20369;-73
2021/04/23 00:16:42;;;;;;;9.45;5.55;;;4.20;99.90;;;;;;5072767;28;20032;-73
2021/04/23 00:19:11;;;;;;;16.02;5.50;;;4.20;99.90;;;;;;5073039;28;20028;-73
2021/04/23 00:21:37;;;;;;;17.10;5.97;;;4.20;99.90;;;;;;5072010;28;20044;-73
2021/04/23 00:24:04;;;;;;;15.40;6.07;;;4.10;99.90;;;;;;5073233;28;20028;-73
2021/04/23 00:26:29;;;;;;;19.08;7.45;;;4.10;99.90;;;;;;5072767;28;20119;-73
2021/04/23 00:28:58;;;;;;;10.90;5.25;;;4.10;99.90;;;;;;5072261;28;20099;-73
2021/04/23 00:31:24;;;;;;;11.57;5.40;;;4.10;99.90;;;;;;5072243;28;20043;-73
2021/04/23 00:33:49;;;;;;;10.52;5.93;;;4.10;99.90;;;;;;5072939;28;20119;-73
2021/04/23 00:36:15;;;;;;;16.17;6.57;;;4.10;99.90;;;;;;5072301;28;20461;-73
2021/04/23 00:38:41;;;;;;;8.85;5.38;;;4.10;99.90;;;;;;5072745;28;20123;-73
2021/04/23 00:41:16;;;;;;;9.43;5.45;;;4.10;99.90;;;;;;5072709;28;20037;-72
2021/04/23 00:43:45;;;;;;;12.45;5.75;;;4.10;99.90;;;;;;5071946;28;20027;-73
2021/04/23 00:46:14;;;;;;;8.30;5.95;;;4.10;99.90;;;;;;5072884;28;20115;-72
2021/04/23 00:48:46;;;;;;;13.65;5.80;;;4.10;99.90;;;;;;5071910;28;20390;-73
2021/04/23 00:51:18;;;;;;;18.83;5.85;;;4.10;99.90;;;;;;5072952;28;20369;-73
2021/04/23 00:53:47;;;;;;;14.23;6.05;;;4.10;99.90;;;;;;5072619;28;20029;-73
2021/04/23 00:56:16;;;;;;;11.27;6.57;;;4.00;99.90;;;;;;5071869;28;20476;-72
2021/04/23 00:58:42;;;;;;;14.52;6.07;;;4.10;99.90;;;;;;5072169;28;20092;-72
2021/04/23 01:01:14;;;;;;;10.05;5.38;;;4.00;99.90;;;;;;5072863;28;20392;-73
2021/04/23 01:03:40;;;;;;;11.23;5.07;;;4.00;99.90;;;;;;5071726;28;20020;-72
2021/04/23 01:06:13;;;;;;;11.15;5.80;;;4.00;99.90;;;;;;5072522;28;20016;-72
2021/04/23 01:08:39;;;;;;;18.13;6.30;;;4.10;99.90;;;;;;5072119;28;20024;-73
2021/04/23 01:11:05;;;;;;;11.38;5.97;;;4.00;99.90;;;;;;5071547;28;20103;-73
2021/04/23 01:13:31;;;;;;;12.25;5.85;;;4.10;99.90;;;;;;5071838;28;20501;-73
2021/04/23 01:16:18;;;;;;;16.42;5.43;;;4.00;99.90;;;;;;5072010;28;20030;-73
2021/04/23 01:18:44;;;;;;;12.02;5.05;;;4.10;99.90;;;;;;5071398;28;20056;-73
2021/04/23 01:21:11;;;;;;;12.77;5.50;;;4.00;99.90;;;;;;5072209;28;20094;-72
2021/04/23 01:23:39;;;;;;;11.32;5.60;;;4.10;99.90;;;;;;5071670;28;20028;-73
2021/04/23 01:26:08;;;;;;;12.82;5.60;;;4.00;99.90;;;;;;5071232;28;20028;-73
2021/04/23 01:28:34;;;;;;;14.13;6.03;;;4.00;99.90;;;;;;5071932;28;20060;-73
2021/04/23 01:31:04;;;;;;;19.92;6.40;;;4.00;99.90;;;;;;5071039;28;20079;-73
2021/04/23 01:33:30;;;;;;;17.47;6.03;;;4.00;99.90;;;;;;5071854;28;20021;-73
2021/04/23 01:35:56;;;;;;;15.57;7.03;;;4.00;99.90;;;;;;5071989;28;20481;-73
2021/04/23 01:38:22;;;;;;;13.60;7.55;;;4.00;99.90;;;;;;5071041;28;20081;-72
2021/04/23 01:40:48;;;;;;;11.85;6.25;;;4.00;99.90;;;;;;5072060;28;20123;-72
2021/04/23 01:43:17;;;;;;;12.70;6.18;;;3.90;99.90;;;;;;5076206;28;20024;-72
2021/04/23 01:45:43;;;;;;;8.63;5.35;;;3.90;99.90;;;;;;5076453;28;20039;-72
2021/04/23 01:48:09;;;;;;;10.05;5.25;;;3.90;99.90;;;;;;5071936;28;20480;-73
2021/04/23 01:50:34;;;;;;;12.60;5.70;;;3.90;99.90;;;;;;5071631;28;20135;-72
2021/04/23 01:53:00;;;;;;;11.77;5.45;;;3.80;99.90;;;;;;5076891;28;21283;-73
2021/04/23 01:55:26;;;;;;;10.45;5.65;;;3.90;99.90;;;;;;5080059;28;20029;-72
2021/04/23 01:57:52;;;;;;;9.70;5.57;;;3.80;99.90;;;;;;5078259;28;20111;-72
2021/04/23 02:00:36;;;;;;;11.65;5.85;;;3.80;99.90;;;;;;5079627;28;20507;-73
2021/04/23 02:03:05;;;;;;;10.77;6.05;;;3.80;99.90;;;;;;5071800;28;20056;-74
2021/04/23 02:05:31;;;;;;;14.07;5.13;;;3.80;99.90;;;;;;5071799;28;20114;-74
2021/04/23 02:07:57;;;;;;;16.67;5.28;;;3.80;99.90;;;;;;5071256;28;20017;-73
2021/04/23 02:10:27;;;;;;;10.63;6.03;;;3.80;99.90;;;;;;5071476;28;20055;-73
2021/04/23 02:12:52;;;;;;;9.88;5.07;;;3.70;99.90;;;;;;5071900;28;20025;-73
2021/04/23 02:15:19;;;;;;;14.52;5.75;;;3.70;99.90;;;;;;5070594;28;20111;-73
2021/04/23 02:17:46;;;;;;;12.32;5.43;;;3.70;99.90;;;;;;5071656;28;20025;-72
2021/04/23 02:20:18;;;;;;;13.13;5.63;;;3.70;99.90;;;;;;5070961;28;20071;-73
2021/04/23 02:22:47;;;;;;;14.73;5.60;;;3.70;99.90;;;;;;5071830;28;20047;-73
2021/04/23 02:25:14;;;;;;;12.70;5.88;;;3.60;99.90;;;;;;5071713;28;20507;-72
2021/04/23 02:27:41;;;;;;;12.50;5.25;;;3.60;99.90;;;;;;5070586;28;20017;-73
2021/04/23 02:30:26;;;;;;;14.70;6.65;;;3.60;99.90;;;;;;5074977;28;20039;-71
2021/04/23 02:32:52;;;;;;;10.55;5.20;;;3.60;99.90;;;;;;5075573;28;20046;-72
2021/04/23 02:35:20;;;;;;;18.83;6.00;;;3.50;99.90;;;;;;5074561;28;20028;-71
2021/04/23 02:37:46;;;;;;;11.10;5.60;;;3.50;99.90;;;;;;5075064;28;20023;-72
2021/04/23 02:40:15;;;;;;;12.40;5.95;;;3.60;99.90;;;;;;5075129;28;20040;-72
2021/04/23 02:42:41;;;;;;;16.90;5.75;;;3.60;99.90;;;;;;5073990;28;20021;-72
2021/04/23 02:45:11;;;;;;;9.88;5.53;;;3.50;99.90;;;;;;5075023;28;20017;-72
2021/04/23 02:47:39;;;;;;;12.20;4.30;;;3.50;99.90;;;;;;5074604;28;20059;-72
2021/04/23 02:50:08;;;;;;;7.05;4.55;;;3.50;99.90;;;;;;5074344;28;20039;-72
2021/04/23 02:52:34;;;;;;;12.23;4.53;;;3.50;99.90;;;;;;5074502;28;20371;-72
2021/04/23 02:55:00;;;;;;;6.78;3.78;;;3.40;99.90;;;;;;5074653;28;20103;-72
2021/04/23 02:57:26;;;;;;;8.48;4.10;;;3.40;99.90;;;;;;5074305;28;20119;-72
2021/04/23 02:59:52;;;;;;;7.72;3.88;;;3.30;99.90;;;;;;5074846;28;20056;-73
2021/04/23 03:02:18;;;;;;;9.10;3.65;;;3.40;99.90;;;;;;5074026;28;20118;-72
2021/04/23 03:04:44;;;;;;;9.68;5.63;;;3.30;99.90;;;;;;5074642;28;20016;-73
2021/04/23 03:07:12;;;;;;;7.30;4.25;;;3.30;99.90;;;;;;5075244;28;20028;-73
2021/04/23 03:09:38;;;;;;;4.88;3.58;;;3.20;99.90;;;;;;5073802;28;20028;-72
2021/04/23 03:12:05;;;;;;;8.30;5.05;;;3.20;99.90;;;;;;5074375;28;20027;-73
2021/04/23 03:14:30;;;;;;;8.73;4.78;;;3.20;99.90;;;;;;5074241;28;20036;-73
2021/04/23 03:16:56;;;;;;;9.60;4.10;;;3.20;99.90;;;;;;5073560;28;20035;-72
2021/04/23 03:19:22;;;;;;;9.50;4.22;;;3.10;99.90;;;;;;5074277;28;20032;-73
2021/04/23 03:21:50;;;;;;;6.28;4.47;;;3.10;99.90;;;;;;5074211;28;20427;-73
2021/04/23 03:24:18;;;;;;;8.68;4.15;;;3.10;99.90;;;;;;5073568;28;20048;-73
2021/04/23 03:26:45;;;;;;;7.97;4.60;;;3.10;99.90;;;;;;5074268;28;20036;-73
2021/04/23 03:29:14;;;;;;;9.23;4.18;;;3.10;99.90;;;;;;5074422;28;20028;-71
2021/04/23 03:31:41;;;;;;;8.93;4.57;;;3.10;99.90;;;;;;5073164;28;20076;-73
2021/04/23 03:34:07;;;;;;;7.85;4.68;;;3.00;99.90;;;;;;5074587;28;20029;-72
2021/04/23 03:36:33;;;;;;;8.20;5.05;;;3.00;99.90;;;;;;5073833;28;20472;-72
2021/04/23 03:38:59;;;;;;;9.45;5.97;;;3.00;99.90;;;;;;5072779;28;20029;-72
2021/04/23 03:41:31;;;;;;;11.27;6.00;;;3.00;99.90;;;;;;5073577;28;20028;-72
2021/04/23 03:43:58;;;;;;;12.93;6.80;;;3.00;99.90;;;;;;5075539;28;20111;-72
2021/04/23 03:46:24;;;;;;;13.10;5.55;;;3.00;99.90;;;;;;5080694;28;20040;-72
2021/04/23 03:48:50;;;;;;;12.27;5.88;;;3.00;99.90;;;;;;5074226;28;20105;-72
2021/04/23 03:51:18;;;;;;;10.00;5.13;;;3.00;99.90;;;;;;5073986;28;20104;-73
2021/04/23 03:53:45;;;;;;;7.60;5.10;;;3.00;99.90;;;;;;5073601;28;20553;-73
2021/04/23 03:56:13;;;;;;;8.93;4.80;;;3.00;99.90;;;;;;5083968;28;20088;-74
2021/04/23 03:58:45;;;;;;;10.93;5.75;;;3.00;99.90;;;;;;5074133;28;20029;-73
2021/04/23 04:01:14;;;;;;;12.60;5.22;;;2.90;99.90;;;;;;5080553;28;20040;-73
2021/04/23 04:03:40;;;;;;;8.38;4.57;;;2.90;99.90;;;;;;5074094;28;20017;-73
2021/04/23 04:06:06;;;;;;;8.95;4.82;;;2.90;99.90;;;;;;5072859;28;20055;-73
2021/04/23 04:08:33;;;;;;;9.48;5.07;;;2.90;99.90;;;;;;5073020;28;20047;-72
2021/04/23 04:10:59;;;;;;;13.68;6.03;;;2.80;99.90;;;;;;5073502;28;20035;-73
2021/04/23 04:13:25;;;;;;;8.20;4.80;;;2.80;99.90;;;;;;5072519;28;20083;-73
2021/04/23 04:15:50;;;;;;;6.68;4.60;;;2.80;99.90;;;;;;5073278;28;20472;-73
2021/04/23 04:18:17;;;;;;;9.00;4.45;;;2.80;99.90;;;;;;5072954;28;20051;-73
2021/04/23 04:20:45;;;;;;;13.07;5.38;;;2.80;99.90;;;;;;5072175;28;20039;-73
2021/04/23 04:23:15;;;;;;;12.90;5.47;;;2.80;99.90;;;;;;5073229;28;20032;-73
2021/04/23 04:25:42;;;;;;;15.02;5.68;;;2.70;99.90;;;;;;5072758;28;20028;-73
2021/04/23 04:28:09;;;;;;;18.88;5.60;;;2.70;99.90;;;;;;5072437;28;20069;-74
2021/04/23 04:30:35;;;;;;;15.35;5.68;;;2.80;99.90;;;;;;5072582;28;20106;-74
2021/04/23 04:33:05;;;;;;;19.27;7.63;;;2.80;99.90;;;;;;5072811;28;20503;-72
2021/04/23 04:35:31;;;;;;;13.25;6.82;;;2.80;99.90;;;;;;5072001;28;20365;-72
2021/04/23 04:37:58;;;;;;;25.35;7.78;;;2.90;99.90;;;;;;5072911;28;20024;-71
2021/04/23 04:40:25;;;;;;;13.18;6.20;;;2.90;99.90;;;;;;5072320;28;20112;-73
2021/04/23 04:42:52;;;;;;;10.45;5.47;;;2.90;99.90;;;;;;5072102;28;20052;-73
2021/04/23 04:45:20;;;;;;;10.65;6.90;;;2.90;99.90;;;;;;5072550;28;20032;-73
2021/04/23 04:47:47;;;;;;;15.77;6.80;;;2.90;99.90;;;;;;5071687;28;20121;-74
2021/04/23 04:50:16;;;;;;;12.60;6.55;;;3.00;99.90;;;;;;5072703;28;20392;-73
2021/04/23 04:52:41;;;;;;;17.20;6.90;;;3.00;99.90;;;;;;5071959;28;20025;-73
2021/04/23 04:55:08;;;;;;;14.57;7.57;;;3.00;99.90;;;;;;5072034;28;20021;-74
2021/04/23 04:57:36;;;;;;;22.50;6.85;;;3.00;99.90;;;;;;5072201;28;20031;-73
2021/04/23 05:00:05;;;;;;;10.85;6.15;;;3.00;99.90;;;;;;5072348;28;20029;-72
2021/04/23 05:02:30;;;;;;;10.55;5.50;;;3.10;99.90;;;;;;5071568;28;20025;-73
2021/04/23 05:04:56;;;;;;;11.45;5.60;;;3.00;99.90;;;;;;5072641;28;20462;-73
2021/04/23 05:07:21;;;;;;;8.65;5.10;;;3.10;99.90;;;;;;5072095;28;20437;-72
2021/04/23 05:09:47;;;;;;;12.95;6.18;;;3.10;99.90;;;;;;5071612;28;20021;-72
2021/04/23 05:12:12;;;;;;;15.18;6.00;;;3.10;99.90;;;;;;5072299;28;20024;-72
2021/04/23 05:14:38;;;;;;;12.10;6.25;;;3.10;99.90;;;;;;5072104;28;20086;-72
2021/04/23 05:17:03;;;;;;;10.35;5.88;;;3.20;99.90;;;;;;5071315;28;20426;-73
2021/04/23 05:19:29;;;;;;;13.27;5.57;;;3.20;99.90;;;;;;5071581;28;20422;-73
2021/04/23 05:21:55;;;;;;;12.60;5.80;;;3.30;99.90;;;;;;5071901;28;20028;-72
2021/04/23 05:24:20;;;;;;;11.68;6.78;;;3.30;99.90;;;;;;5070806;28;20107;-72
2021/04/23 05:26:46;;;;;;;13.13;6.65;;;3.40;99.90;;;;;;5071914;28;20029;-73
2021/04/23 05:29:11;;;;;;;12.10;6.65;;;3.40;99.90;;;;;;5072013;28;20768;-73
2021/04/23 05:31:38;;;;;;;18.10;7.78;;;3.50;99.90;;;;;;5070651;28;20416;-72
2021/04/23 05:34:04;;;;;;;18.63;7.72;;;3.60;99.90;;;;;;5071855;28;20052;-72
2021/04/23 05:36:30;;;;;;;22.70;8.23;;;3.60;99.90;;;;;;5071646;28;20048;-73
2021/04/23 05:38:56;;;;;;;20.27;7.32;;;3.70;99.90;;;;;;5071694;28;20039;-73
2021/04/23 05:41:22;;;;;;;17.40;7.00;;;3.80;99.90;;;;;;5071469;28;20041;-74
2021/04/23 05:43:48;;;;;;;22.25;7.57;;;3.90;99.90;;;;;;5072040;28;20028;-74
2021/04/23 05:46:17;;;;;;;13.57;6.68;;;4.00;99.90;;;;;;5075644;28;20031;-74
2021/04/23 05:48:43;;;;;;;17.67;6.80;;;4.00;99.90;;;;;;5079327;28;20032;-74
2021/04/23 05:51:09;;;;;;;20.17;7.15;;;4.10;99.90;;;;;;5071588;28;20487;-74
2021/04/23 05:53:34;;;;;;;26.98;7.22;;;4.20;99.90;;;;;;5072036;28;20083;-73
2021/04/23 05:56:00;;;;;;;16.17;7.18;;;4.30;99.90;;;;;;5073443;28;20021;-73
2021/04/23 05:58:25;;;;;;;18.58;6.80;;;4.30;99.90;;;;;;5072689;28;20025;-72
2021/04/23 06:00:51;;;;;;;23.08;6.22;;;4.40;99.90;;;;;;5074480;28;20029;-73
2021/04/23 06:03:17;;;;;;;19.63;7.45;;;4.50;99.90;;;;;;5078550;28;20036;-73
2021/04/23 06:05:42;;;;;;;14.63;6.28;;;4.60;99.90;;;;;;5075621;28;20123;-73
2021/04/23 06:08:10;;;;;;;14.15;6.03;;;4.60;99.90;;;;;;5074793;28;20024;-74
2021/04/23 06:10:36;;;;;;;21.20;5.93;;;4.70;99.90;;;;;;5075610;28;20016;-73
2021/04/23 06:13:03;;;;;;;14.50;7.05;;;4.80;99.90;;;;;;5075153;28;20035;-73
2021/04/23 06:15:35;;;;;;;13.43;5.50;;;4.90;99.90;;;;;;5075210;28;20024;-72
2021/04/23 06:18:01;;;;;;;20.45;6.35;;;5.00;99.90;;;;;;5075589;28;20025;-74
2021/04/23 06:20:29;;;;;;;10.93;5.95;;;5.00;99.90;;;;;;5074607;28;20039;-74
2021/04/23 06:22:55;;;;;;;19.02;6.00;;;5.10;99.90;;;;;;5075452;28;20063;-74
2021/04/23 06:25:22;;;;;;;19.60;6.15;;;5.20;99.90;;;;;;5074939;28;20033;-74
2021/04/23 06:27:51;;;;;;;14.45;5.45;;;5.20;99.90;;;;;;5074472;28;20070;-72
2021/04/23 06:30:19;;;;;;;9.95;5.07;;;5.30;99.90;;;;;;5075015;28;20470;-73
2021/04/23 06:32:51;;;;;;;18.67;6.45;;;5.40;99.90;;;;;;5075275;28;20017;-73
2021/04/23 06:35:20;;;;;;;9.18;4.55;;;5.50;99.90;;;;;;5074304;28;20027;-74
2021/04/23 06:37:46;;;;;;;12.52;4.25;;;5.50;99.90;;;;;;5074791;28;20476;-73
2021/04/23 06:40:14;;;;;;;15.38;4.03;;;5.50;99.90;;;;;;5074595;28;20155;-73
2021/04/23 06:42:43;;;;;;;18.50;4.03;;;5.60;99.90;;;;;;5074761;28;20500;-73
2021/04/23 06:45:15;;;;;;;16.40;4.63;;;5.70;99.90;;;;;;5074636;28;20043;-73
2021/04/23 06:47:42;;;;;;;15.50;5.45;;;5.80;99.90;;;;;;5073606;28;20028;-74
2021/04/23 06:50:09;;;;;;;11.85;5.10;;;5.80;99.90;;;;;;5075108;28;20110;-74
2021/04/23 06:52:35;;;;;;;12.02;4.10;;;6.00;99.90;;;;;;5074639;28;20476;-74
2021/04/23 06:55:00;;;;;;;6.43;3.42;;;6.00;99.90;;;;;;5074134;28;20098;-74
2021/04/23 06:57:26;;;;;;;11.70;3.45;;;6.00;99.90;;;;;;5074843;28;20037;-74
2021/04/23 06:59:52;;;;;;;12.13;4.32;;;6.10;99.90;;;;;;5074679;28;20029;-73
2021/04/23 07:02:18;;;;;;;11.95;4.25;;;6.20;99.90;;;;;;5073999;28;20024;-73
2021/04/23 07:04:43;;;;;;;11.45;3.90;;;6.30;99.90;;;;;;5074803;28;20097;-72
2021/04/23 07:07:09;;;;;;;11.88;4.53;;;6.30;99.90;;;;;;5074751;28;20040;-73
2021/04/23 07:09:34;;;;;;;15.98;5.00;;;6.40;99.90;;;;;;5073543;28;20025;-73
2021/04/23 07:12:01;;;;;;;12.52;4.15;;;6.50;99.90;;;;;;5074559;28;20029;-73
2021/04/23 07:14:27;;;;;;;22.95;4.68;;;6.50;99.90;;;;;;5073459;28;20023;-73
2021/04/23 07:16:53;;;;;;;11.90;3.88;;;6.50;99.90;;;;;;5073769;28;20028;-73
2021/04/23 07:19:18;;;;;;;8.25;3.70;;;6.60;99.90;;;;;;5074314;28;20021;-73
2021/04/23 07:21:44;;;;;;;7.55;2.85;;;6.70;99.90;;;;;;5074643;28;20078;-73
2021/04/23 07:24:10;;;;;;;12.07;3.65;;;6.70;99.90;;;;;;5073698;28;20514;-73
2021/04/23 07:26:36;;;;;;;9.05;4.03;;;6.80;99.90;;;;;;5074093;28;20024;-73
2021/04/23 07:29:01;;;;;;;18.08;4.45;;;6.80;99.90;;;;;;5074109;28;20476;-73
2021/04/23 07:31:27;;;;;;;9.02;2.90;;;6.90;99.90;;;;;;5073149;28;20087;-74
2021/04/23 07:33:52;;;;;;;12.70;3.45;;;7.00;99.90;;;;;;5074178;28;20066;-75
2021/04/23 07:36:18;;;;;;;10.60;3.83;;;7.00;99.90;;;;;;5073971;28;20375;-74
2021/04/23 07:38:44;;;;;;;13.10;3.63;;;7.00;99.90;;;;;;5073387;28;20020;-74
2021/04/23 07:41:10;;;;;;;6.93;2.92;;;7.00;99.90;;;;;;5073942;28;20044;-74
2021/04/23 07:43:35;;;;;;;5.47;2.47;;;7.10;99.90;;;;;;5073002;28;20115;-74
2021/04/23 07:46:04;;;;;;;11.88;2.92;;;7.10;99.90;;;;;;5074042;28;20124;-73
2021/04/23 07:48:30;;;;;;;10.75;3.50;;;7.20;99.90;;;;;;5083780;28;20072;-73
2021/04/23 07:50:56;;;;;;;10.55;4.00;;;7.20;99.90;;;;;;5078004;28;20106;-74
2021/04/23 07:53:22;;;;;;;11.90;3.03;;;7.30;99.90;;;;;;5073559;28;20031;-73
2021/04/23 07:55:48;;;;;;;17.02;3.95;;;7.30;99.90;;;;;;5073680;28;20025;-73
2021/04/23 07:58:14;;;;;;;14.38;4.95;;;7.40;99.90;;;;;;5077523;28;20108;-73
2021/04/23 08:00:40;;;;;;;10.52;3.88;;;7.40;99.90;;;;;;5077016;28;20463;-73
2021/04/23 08:03:06;;;;;;;7.78;3.92;;;7.50;99.90;;;;;;5080878;28;20032;-74
2021/04/23 08:05:32;;;;;;;16.50;4.88;;;7.60;99.90;;;;;;5076056;28;20031;-74
2021/04/23 08:07:58;;;;;;;14.32;4.65;;;7.60;99.90;;;;;;5073276;28;20033;-73
2021/04/23 08:10:23;;;;;;;10.35;4.75;;;7.60;99.90;;;;;;5073293;28;20035;-73
2021/04/23 08:12:51;;;;;;;12.45;4.32;;;7.70;99.90;;;;;;5072864;28;20472;-73
2021/04/23 08:15:18;;;;;;;17.23;4.03;;;7.80;99.90;;;;;;5073179;28;20028;-73
2021/04/23 08:17:44;;;;;;;10.45;3.10;;;7.80;99.90;;;;;;5073280;28;20029;-73
2021/04/23 08:20:12;;;;;;;14.80;3.35;;;7.90;99.90;;;;;;5072310;28;20044;-73
2021/04/23 08:22:38;;;;;;;10.88;4.05;;;8.00;99.90;;;;;;5071332;28;20431;-73
2021/04/23 08:25:06;;;;;;;14.25;3.58;;;8.00;99.90;;;;;;5073174;28;20032;-73
2021/04/23 08:27:32;;;;;;;6.30;3.40;;;8.10;99.90;;;;;;5072069;28;20210;-74
2021/04/23 08:29:57;;;;;;;12.93;3.83;;;8.20;99.90;;;;;;5072670;28;20163;-73
2021/04/23 08:32:23;;;;;;;8.63;3.03;;;8.30;99.90;;;;;;5072351;28;20039;-73
2021/04/23 08:34:49;;;;;;;15.95;3.95;;;8.30;99.90;;;;;;5071932;28;20016;-72
2021/04/23 08:37:15;;;;;;;11.70;4.47;;;8.30;99.90;;;;;;5072582;28;20488;-75
2021/04/23 08:39:40;;;;;;;10.93;3.75;;;8.40;99.90;;;;;;5072829;28;20056;-74
2021/04/23 08:42:06;;;;;;;14.52;3.88;;;8.50;99.90;;;;;;5072503;28;20029;-74
2021/04/23 08:44:32;;;;;;;11.93;4.25;;;8.50;99.90;;;;;;5072245;28;20027;-74
2021/04/23 08:46:58;;;;;;;10.10;3.97;;;8.70;99.90;;;;;;5072157;28;20028;-73
2021/04/23 08:49:25;;;;;;;13.13;4.07;;;8.60;99.90;;;;;;5072253;28;20036;-73
2021/04/23 08:51:51;;;;;;;12.60;3.95;;;8.70;99.90;;;;;;5072522;28;20016;-73
2021/04/23 08:54:19;;;;;;;13.68;5.43;;;8.70;99.90;;;;;;5071870;28;20070;-73
2021/04/23 08:56:45;;;;;;;11.35;3.72;;;8.60;99.90;;;;;;5072226;28;20023;-74
2021/04/23 08:59:10;;;;;;;14.77;4.10;;;8.70;99.90;;;;;;5072459;28;20040;-74
2021/04/23 09:01:36;;;;;;;15.13;4.15;;;8.80;99.90;;;;;;5071433;28;20033;-74
2021/04/23 09:04:01;;;;;;;9.88;4.75;;;8.80;99.90;;;;;;5072422;28;20021;-74
2021/04/23 09:06:28;;;;;;;10.43;3.75;;;8.90;99.90;;;;;;5072138;28;20024;-74
2021/04/23 09:08:56;;;;;;;11.20;4.25;;;8.90;99.90;;;;;;5071745;28;20115;-74
2021/04/23 09:11:30;;;;;;;12.77;4.35;;;9.00;99.90;;;;;;5071807;28;20021;-73
2021/04/23 09:14:06;;;;;;;12.15;4.55;;;9.10;99.90;;;;;;5059463;28;20048;-73
2021/04/23 09:16:55;;;;;;;11.98;4.57;;;9.10;99.90;;;;;;5071173;28;20060;-73
2021/04/23 09:19:27;;;;;;;13.95;4.50;;;9.10;99.90;;;;;;5072478;28;20028;-74
2021/04/23 09:22:08;;;;;;;9.82;4.13;;;9.10;99.90;;;;;;5072211;28;20388;-74
2021/04/23 09:24:37;;;;;;;10.27;3.90;;;9.20;99.90;;;;;;5072421;28;20025;-73
2021/04/23 09:27:18;;;;;;;7.15;4.00;;;9.30;99.90;;;;;;5072282;28;20055;-74
2021/04/23 09:29:46;;;;;;;16.13;4.88;;;9.20;99.90;;;;;;5071395;28;20040;-73
2021/04/23 09:32:13;;;;;;;17.23;5.72;;;9.40;99.90;;;;;;5071932;28;20075;-73
2021/04/23 09:34:59;;;;;;;12.93;4.50;;;9.50;99.90;;;;;;5071790;28;20021;-74
2021/04/23 09:37:28;;;;;;;17.60;6.30;;;9.60;99.90;;;;;;5070518;28;20033;-74
2021/04/23 09:40:13;;;;;;;12.00;4.78;;;9.60;99.90;;;;;;5071974;28;20055;-74
2021/04/23 09:42:58;;;;;;;13.82;4.78;;;9.60;99.90;;;;;;5071618;28;20094;-73
2021/04/23 09:45:33;;;;;;;8.73;4.20;;;9.70;99.90;;;;;;5071327;28;20024;-74
2021/04/23 09:47:58;;;;;;;13.20;5.95;;;9.80;99.90;;;;;;5072454;28;20526;-73
2021/04/23 09:50:38;;;;;;;12.10;4.75;;;10.00;99.90;;;;;;5076211;28;20469;-74
2021/04/23 09:53:06;;;;;;;16.88;5.47;;;10.20;99.90;;;;;;5074951;28;20440;-73
2021/04/23 09:55:33;;;;;;;11.60;3.85;;;10.10;99.90;;;;;;5071671;28;20529;-73
2021/04/23 09:58:07;;;;;;;12.32;5.00;;;10.30;99.90;;;;;;5071436;28;20070;-73
2021/04/23 10:00:36;;;;;;;14.98;4.85;;;10.30;99.90;;;;;;5075542;28;20041;-75
2021/04/23 10:03:03;;;;;;;13.85;4.60;;;10.30;99.90;;;;;;5074867;28;20024;-73
2021/04/23 10:05:32;;;;;;;14.65;5.50;;;10.30;99.90;;;;;;5075942;28;20024;-74
2021/04/23 10:07:59;;;;;;;14.57;4.97;;;10.40;99.90;;;;;;5073071;28;20028;-74
2021/04/23 10:10:25;;;;;;;12.95;4.82;;;10.30;99.90;;;;;;5071938;28;20028;-73
2021/04/23 10:12:53;;;;;;;13.85;4.07;;;10.40;99.90;;;;;;5071289;28;20484;-74
2021/04/23 10:15:32;;;;;;;7.88;3.72;;;10.40;99.90;;;;;;5071416;28;20023;-73
2021/04/23 10:18:06;;;;;;;12.40;5.00;;;10.50;99.90;;;;;;5072198;28;20033;-73
2021/04/23 10:20:53;;;;;;;10.75;4.03;;;10.50;99.90;;;;;;5070204;28;20032;-72
2021/04/23 10:23:20;;;;;;;8.25;4.03;;;10.60;99.90;;;;;;5070862;28;20017;-73
2021/04/23 10:25:47;;;;;;;7.63;3.80;;;10.60;99.90;;;;;;5070572;28;20483;-73
2021/04/23 10:28:20;;;;;;;6.78;3.72;;;10.50;99.90;;;;;;5071300;28;20039;-72
2021/04/23 10:30:49;;;;;;;8.10;3.95;;;10.60;99.90;;;;;;5071102;28;20543;-73
2021/04/23 10:33:19;;;;;;;11.65;4.00;;;10.80;99.90;;;;;;5070655;28;20373;-74
2021/04/23 10:35:46;;;;;;;9.77;4.07;;;10.80;99.90;;;;;;5071048;28;20076;-74
2021/04/23 10:38:17;;;;;;;18.08;4.45;;;10.80;99.90;;;;;;5071202;28;20029;-74
2021/04/23 10:40:50;;;;;;;12.07;4.28;;;10.90;99.90;;;;;;5070373;28;20467;-73
2021/04/23 10:43:18;;;;;;;10.45;4.05;;;11.00;99.90;;;;;;5070942;28;20028;-73
2021/04/23 10:46:05;;;;;;;13.88;4.78;;;11.10;99.90;;;;;;5071181;28;20029;-74
2021/04/23 10:48:42;;;;;;;10.50;5.07;;;11.20;99.90;;;;;;5070498;28;20028;-72
2021/04/23 10:51:09;;;;;;;10.82;5.35;;;11.30;99.90;;;;;;5074992;28;20127;-74
2021/04/23 10:53:45;;;;;;;13.98;5.13;;;11.30;99.90;;;;;;5073886;28;20107;-74
2021/04/23 10:56:37;;;;;;;10.55;5.03;;;11.30;99.90;;;;;;5074562;28;20044;-74
2021/04/23 10:59:24;;;;;;;13.55;5.00;;;11.40;99.90;;;;;;5074950;28;20028;-73
2021/04/23 11:01:51;;;;;;;11.45;5.03;;;11.30;99.90;;;;;;5073782;28;20037;-73
2021/04/23 11:04:19;;;;;;;12.88;5.18;;;11.40;99.90;;;;;;5074431;28;20147;-73
2021/04/23 11:06:53;;;;;;;13.30;5.45;;;11.40;99.90;;;;;;5074260;28;20193;-72
2021/04/23 11:09:23;;;;;;;9.68;4.65;;;11.40;99.90;;;;;;5073597;28;20016;-73
2021/04/23 11:12:25;;;;;;;13.07;4.45;;;11.50;99.90;;;;;;5074757;28;20017;-73
2021/04/23 11:14:57;;;;;;;8.73;4.28;;;11.60;99.90;;;;;;5012281;28;20041;-73
2021/04/23 11:17:27;;;;;;;8.52;4.22;;;11.70;99.90;;;;;;5065040;28;20415;-73
2021/04/23 11:19:53;;;;;;;13.95;4.85;;;11.80;99.90;;;;;;5074650;28;20037;-73
2021/04/23 11:22:24;;;;;;;15.45;4.75;;;11.90;99.90;;;;;;5059266;28;20484;-73
2021/04/23 11:25:16;;;;;;;;;;;11.80;99.90;;;;;;5074852;28;20027;-74
2021/04/23 11:28:00;;;;;;;9.65;4.75;;;11.80;99.90;;;;;;5073690;28;19911;-74
2021/04/23 11:30:47;;;;;;;10.70;4.68;;;11.90;99.90;;;;;;5072911;28;20408;-73
2021/04/23 11:33:12;;;;;;;14.95;5.38;;;12.00;99.90;;;;;;5073664;28;20028;-73
2021/04/23 11:35:38;;;;;;;12.45;4.80;;;11.90;99.90;;;;;;5073105;28;20473;-73
2021/04/23 11:38:03;;;;;;;7.28;4.13;;;12.00;99.90;;;;;;5073727;28;20043;-73
2021/04/23 11:40:30;;;;;;;15.27;5.40;;;12.00;99.90;;;;;;5073421;28;20033;-73
2021/04/23 11:43:04;;;;;;;12.27;4.85;;;12.00;99.90;;;;;;5072947;28;20051;-72
2021/04/23 11:45:32;;;;;;;12.95;4.70;;;12.10;99.90;;;;;;5073713;28;20021;-72
2021/04/23 11:47:59;;;;;;;14.88;6.38;;;12.20;99.90;;;;;;5073319;28;20029;-73
2021/04/23 11:50:29;;;;;;;11.65;5.25;;;12.10;98.90;;;;;;5073390;28;20373;-73
2021/04/23 11:53:06;;;;;;;11.98;5.32;;;12.10;99.90;;;;;;5079403;28;20028;-74
2021/04/23 11:55:35;;;;;;;13.25;5.93;;;12.20;99.90;;;;;;5074318;28;20024;-74
2021/04/23 11:58:17;;;;;;;12.02;5.40;;;12.20;99.90;;;;;;5072876;28;20119;-74
2021/04/23 12:01:02;;;;;;;9.45;4.93;;;12.20;99.90;;;;;;5073824;28;20062;-74
2021/04/23 12:03:27;;;;;;;11.80;5.70;;;12.40;99.90;;;;;;5081086;28;20480;-74
2021/04/23 12:05:55;;;;;;;10.07;6.22;;;12.50;99.90;;;;;;5075494;28;20017;-74
2021/04/23 12:08:21;;;;;;;12.93;6.10;;;12.60;99.90;;;;;;5080631;28;20084;-74
2021/04/23 12:11:07;;;;;;;14.43;5.50;;;12.50;99.90;;;;;;5073849;28;20044;-74
2021/04/23 12:13:35;;;;;;;9.77;4.80;;;12.60;99.90;;;;;;5072838;28;20519;-73
2021/04/23 12:16:03;;;;;;;9.50;4.43;;;12.60;99.90;;;;;;5073496;28;20078;-74
2021/04/23 12:18:30;;;;;;;11.07;5.18;;;12.70;99.90;;;;;;5072217;28;20067;-74
2021/04/23 12:20:58;;;;;;;11.57;4.63;;;12.80;98.90;;;;;;5073084;28;20499;-74
2021/04/23 12:23:26;;;;;;;13.32;4.90;;;12.80;98.90;;;;;;5072750;28;20031;-74
2021/04/23 12:26:03;;;;;;;10.57;5.07;;;13.00;98.30;;;;;;5072552;28;20059;-73
2021/04/23 12:28:36;;;;;;;12.18;4.97;;;13.10;97.00;;;;;;5073093;28;20380;-74
2021/04/23 12:31:04;;;;;;;13.30;5.32;;;13.00;96.50;;;;;;5072607;28;20091;-73
2021/04/23 12:33:52;;;;;;;6.68;4.78;;;13.10;96.90;;;;;;5071930;28;20120;-74
2021/04/23 12:36:29;;;;;;;11.73;4.75;;;13.00;96.50;;;;;;5072415;28;20033;-73
2021/04/23 12:39:05;;;;;;;11.23;5.10;;;13.10;96.60;;;;;;5072200;28;20044;-73
2021/04/23 12:41:52;;;;;;;14.52;5.03;;;13.20;96.90;;;;;;5072411;28;20041;-74
2021/04/23 12:44:24;;;;;;;11.32;5.20;;;13.40;96.70;;;;;;5071628;28;20036;-74
2021/04/23 12:46:50;;;;;;;12.02;5.47;;;13.40;95.30;;;;;;5071719;28;20023;-74
2021/04/23 12:49:18;;;;;;;11.75;4.95;;;13.40;95.50;;;;;;5072712;28;20082;-74
2021/04/23 12:51:49;;;;;;;9.25;5.22;;;13.50;96.10;;;;;;5072610;28;20052;-74
2021/04/23 12:54:17;;;;;;;11.52;5.75;;;13.70;96.30;;;;;;5072331;28;20032;-73
2021/04/23 12:56:50;;;;;;;7.78;4.65;;;13.80;95.00;;;;;;5072586;28;20024;-73